createdAt,value
2023-01-10T00:00:38.792Z,6.40
2023-01-10T00:05:55.771Z,6.40
2023-01-10T00:08:26.456Z,6.07
2023-01-10T00:11:35.032Z,6.28
2023-01-10T00:14:06.059Z,7.00
2023-01-10T00:16:38.881Z,5.95
2023-01-10T00:19:11.751Z,6.15
2023-01-10T00:21:42.679Z,6.57
2023-01-10T00:24:24.008Z,6.45
2023-01-10T00:27:14.718Z,5.85
2023-01-10T00:29:46.304Z,6.30
2023-01-10T00:32:36.957Z,6.88
2023-01-10T00:35:08.274Z,6.95
2023-01-10T00:37:39.545Z,6.60
2023-01-10T00:40:12.728Z,6.47
2023-01-10T00:43:01.575Z,5.90
2023-01-10T00:45:33.184Z,6.63
2023-01-10T00:48:04.225Z,6.72
2023-01-10T00:50:35.213Z,6.55
2023-01-10T00:53:06.177Z,6.55
2023-01-10T00:55:38.392Z,7.00
2023-01-10T00:58:13.077Z,6.78
2023-01-10T01:00:48.197Z,7.07
2023-01-10T01:03:22.258Z,7.15
2023-01-10T01:05:54.135Z,7.00
2023-01-10T01:08:44.901Z,6.78
2023-01-10T01:11:15.919Z,7.05
2023-01-10T01:13:48.852Z,7.13
2023-01-10T01:16:42.301Z,6.82
2023-01-10T01:19:37.757Z,6.40
2023-01-10T01:22:08.703Z,6.50
2023-01-10T01:24:41.025Z,7.07
2023-01-10T01:27:13.083Z,6.90
2023-01-10T01:29:44.188Z,6.90
2023-01-10T01:32:15.089Z,7.22
2023-01-10T01:34:46.283Z,7.30
2023-01-10T01:37:17.629Z,6.65
2023-01-10T01:39:49.002Z,7.00
2023-01-10T01:42:24.548Z,7.45
2023-01-10T01:45:12.846Z,7.75
2023-01-10T01:48:11.549Z,7.53
2023-01-10T01:50:52.463Z,7.53
2023-01-10T01:53:39.355Z,7.43
2023-01-10T01:56:22.384Z,9.77
2023-01-10T01:59:05.403Z,8.57
2023-01-10T02:01:37.747Z,8.35
2023-01-10T02:04:37.344Z,10.50
2023-01-10T02:09:59.994Z,11.45
2023-01-10T02:12:32.839Z,9.10
2023-01-10T02:15:05.140Z,9.07
2023-01-10T02:17:36.233Z,9.18
2023-01-10T02:20:14.589Z,11.27
2023-01-10T02:23:16.067Z,9.90
2023-01-10T02:26:07.955Z,10.50
2023-01-10T02:29:39.614Z,9.85
2023-01-10T02:32:13.207Z,11.43
2023-01-10T02:35:02.361Z,12.13
2023-01-10T02:38:06.449Z,9.82
2023-01-10T02:41:22.846Z,9.90
2023-01-10T02:43:59.483Z,11.65
2023-01-10T02:46:33.408Z,9.90
2023-01-10T02:49:07.882Z,10.35
2023-01-10T02:51:38.642Z,10.43
2023-01-10T02:54:24.451Z,10.98
2023-01-10T02:57:22.286Z,10.65
2023-01-10T02:59:52.887Z,11.32
2023-01-10T03:02:44.793Z,11.00
2023-01-10T03:05:33.344Z,9.57
2023-01-10T03:08:04.604Z,10.32
2023-01-10T03:10:41.112Z,11.10
2023-01-10T03:13:26.135Z,10.93
2023-01-10T03:16:00.686Z,11.77
2023-01-10T03:18:38.459Z,10.70
2023-01-10T03:21:13.050Z,10.82
2023-01-10T03:23:43.665Z,10.48
2023-01-10T03:26:15.484Z,11.10
2023-01-10T03:28:57.847Z,10.75
2023-01-10T03:31:41.725Z,11.02
2023-01-10T03:34:12.983Z,9.90
2023-01-10T03:37:11.252Z,10.57
2023-01-10T03:39:50.646Z,10.18
2023-01-10T03:42:57.577Z,10.10
2023-01-10T03:45:36.221Z,9.88
2023-01-10T03:48:09.255Z,10.93
2023-01-10T03:51:03.133Z,10.53
2023-01-10T03:53:38.267Z,10.23
2023-01-10T03:56:09.949Z,9.25
2023-01-10T03:58:40.818Z,9.77
2023-01-10T04:01:14.926Z,8.93
2023-01-10T04:03:45.999Z,9.90
2023-01-10T04:06:20.175Z,10.10
2023-01-10T04:08:51.080Z,10.05
2023-01-10T04:11:25.832Z,10.55
2023-01-10T04:13:57.762Z,10.77
2023-01-10T04:16:29.490Z,9.50
2023-01-10T04:19:04.641Z,10.35
2023-01-10T04:21:38.426Z,10.43
2023-01-10T04:24:14.463Z,10.23
2023-01-10T04:26:48.933Z,10.32
2023-01-10T04:29:19.908Z,9.77
2023-01-10T04:31:51.662Z,10.38
2023-01-10T04:34:23.248Z,10.90
2023-01-10T04:36:54.017Z,10.40
2023-01-10T04:39:24.983Z,11.00
2023-01-10T04:41:56.108Z,10.18
2023-01-10T04:44:28.375Z,10.25
2023-01-10T04:46:59.173Z,10.68
2023-01-10T04:49:30.183Z,10.68
2023-01-10T04:52:01.226Z,10.50
2023-01-10T04:54:32.947Z,10.00
2023-01-10T04:57:05.150Z,9.73
2023-01-10T04:59:37.647Z,10.15
2023-01-10T05:02:08.765Z,10.13
2023-01-10T05:04:39.798Z,9.73
2023-01-10T05:07:10.556Z,9.77
2023-01-10T05:09:41.585Z,11.07
2023-01-10T05:12:12.589Z,10.50
2023-01-10T05:14:43.661Z,10.07
2023-01-10T05:17:15.366Z,9.82
2023-01-10T05:19:46.499Z,10.48
2023-01-10T05:22:17.360Z,10.73
2023-01-10T05:24:48.359Z,11.13
2023-01-10T05:27:19.586Z,10.38
2023-01-10T05:30:15.015Z,10.20
2023-01-10T05:32:51.307Z,9.93
2023-01-10T05:35:22.434Z,9.38
2023-01-10T05:37:53.963Z,9.60
2023-01-10T05:40:28.586Z,10.27
2023-01-10T05:43:00.091Z,9.57
2023-01-10T05:45:32.359Z,10.48
2023-01-10T05:48:03.305Z,10.10
2023-01-10T05:50:39.579Z,10.57
2023-01-10T05:53:12.521Z,10.57
2023-01-10T05:58:57.135Z,9.93
2023-01-10T06:01:36.861Z,9.38
2023-01-10T06:04:07.646Z,9.48
2023-01-10T06:06:40.522Z,10.07
2023-01-10T06:09:11.661Z,10.60
2023-01-10T06:11:44.774Z,10.52
2023-01-10T06:14:21.737Z,10.10
2023-01-10T06:16:56.055Z,9.18
2023-01-10T06:23:09.513Z,10.20
2023-01-10T06:26:05.873Z,9.60
2023-01-10T06:28:38.856Z,10.60
2023-01-10T06:31:10.890Z,10.53
2023-01-10T06:36:26.642Z,9.23
2023-01-10T06:38:57.958Z,9.18
2023-01-10T06:44:25.754Z,9.55
2023-01-10T06:46:56.542Z,9.40
2023-01-10T06:49:27.476Z,9.75
2023-01-10T06:51:59.151Z,9.65
2023-01-10T06:54:30.408Z,9.50
2023-01-10T06:57:02.370Z,10.55
2023-01-10T06:59:33.422Z,10.30
2023-01-10T07:02:04.658Z,9.93
2023-01-10T07:04:36.684Z,9.35
2023-01-10T07:07:10.785Z,9.73
2023-01-10T07:09:43.741Z,9.77
2023-01-10T07:12:17.021Z,9.43
2023-01-10T07:14:48.147Z,10.68
2023-01-10T07:17:19.397Z,9.73
2023-01-10T07:19:50.499Z,10.13
2023-01-10T07:22:21.506Z,9.25
2023-01-10T07:24:55.511Z,9.55
2023-01-10T07:27:26.563Z,9.57
2023-01-10T07:30:00.395Z,9.93
2023-01-10T07:32:34.438Z,9.45
2023-01-10T07:35:05.349Z,9.68
2023-01-10T07:37:37.459Z,9.48
2023-01-10T07:40:08.927Z,9.25
2023-01-10T07:42:39.912Z,9.40
2023-01-10T07:45:11.350Z,10.20
2023-01-10T07:47:42.459Z,9.43
2023-01-10T07:50:13.346Z,9.30
2023-01-10T07:52:44.372Z,9.88
2023-01-10T07:55:15.708Z,9.55
2023-01-10T07:57:46.998Z,10.43
2023-01-10T08:00:18.995Z,9.45
2023-01-10T08:02:55.154Z,9.93
2023-01-10T08:05:27.514Z,9.23
2023-01-10T08:08:28.648Z,9.82
2023-01-10T08:14:31.040Z,9.65
2023-01-10T08:17:03.366Z,9.90
2023-01-10T08:22:29.247Z,9.25
2023-01-10T08:25:00.330Z,8.45
2023-01-10T08:27:31.461Z,10.10
2023-01-10T08:30:07.563Z,10.00
2023-01-10T08:35:44.350Z,9.23
2023-01-10T08:38:15.806Z,9.40
2023-01-10T08:40:47.759Z,9.93
2023-01-10T08:43:59.259Z,9.90
2023-01-10T08:46:54.914Z,9.90
2023-01-10T08:49:26.478Z,9.50
2023-01-10T08:55:05.236Z,10.35
2023-01-10T08:57:56.925Z,9.82
2023-01-10T09:00:28.252Z,9.95
2023-01-10T09:02:59.594Z,9.63
2023-01-10T09:05:30.786Z,9.32
2023-01-10T09:08:03.257Z,8.88
2023-01-10T09:10:34.488Z,9.90
2023-01-10T09:13:06.559Z,9.38
2023-01-10T09:15:39.951Z,9.18
2023-01-10T09:18:13.155Z,9.80
2023-01-10T09:20:51.442Z,8.77
2023-01-10T09:23:48.048Z,9.20
2023-01-10T09:26:20.109Z,9.77
2023-01-10T09:28:51.832Z,9.48
2023-01-10T09:31:22.714Z,9.38
2023-01-10T09:33:55.962Z,9.48
2023-01-10T09:36:26.725Z,9.60
2023-01-10T09:38:57.583Z,9.73
2023-01-10T09:42:11.863Z,9.88
2023-01-10T09:44:57.067Z,9.80
2023-01-10T09:47:46.861Z,9.43
2023-01-10T09:50:40.836Z,8.77
2023-01-10T09:53:20.445Z,9.57
2023-01-10T09:56:01.195Z,10.13
2023-01-10T09:58:36.302Z,8.70
2023-01-10T10:01:42.151Z,9.68
2023-01-10T10:04:48.383Z,8.37
2023-01-10T10:07:19.797Z,9.73
2023-01-10T10:09:51.589Z,8.77
2023-01-10T10:12:44.969Z,8.88
2023-01-10T10:15:29.822Z,8.80
2023-01-10T10:18:09.701Z,8.70
2023-01-10T10:20:48.453Z,8.30
2023-01-10T10:23:43.659Z,8.98
2023-01-10T10:26:55.065Z,8.82
2023-01-10T10:30:02.849Z,8.75
2023-01-10T10:33:02.174Z,9.52
2023-01-10T10:38:40.772Z,9.43
2023-01-10T10:41:32.893Z,8.55
2023-01-10T10:44:12.215Z,7.85
2023-01-10T10:46:44.031Z,8.95
2023-01-10T10:49:28.203Z,8.38
2023-01-10T10:54:30.197Z,8.80
2023-01-10T10:57:05.087Z,8.70
2023-01-10T10:59:36.468Z,8.63
2023-01-10T11:02:32.430Z,8.40
2023-01-10T11:07:56.761Z,9.23
2023-01-10T11:10:37.223Z,9.48
2023-01-10T11:13:43.287Z,9.82
2023-01-10T11:16:37.918Z,9.25
2023-01-10T11:19:20.111Z,8.77
2023-01-10T11:21:59.556Z,10.02
2023-01-10T11:25:29.988Z,10.75
2023-01-10T11:28:09.773Z,10.48
2023-01-10T11:30:49.143Z,13.35
2023-01-10T11:33:31.523Z,11.77
2023-01-10T11:36:15.799Z,10.57
2023-01-10T11:39:05.351Z,11.73
2023-01-10T11:41:37.034Z,9.82
2023-01-10T11:44:38.487Z,11.75
2023-01-10T11:47:16.261Z,11.32
2023-01-10T11:49:48.358Z,13.98
2023-01-10T11:52:31.265Z,13.18
2023-01-10T11:55:05.568Z,14.15
2023-01-10T11:57:36.669Z,16.88
2023-01-10T12:00:11.224Z,16.58
2023-01-10T12:02:46.415Z,11.57
2023-01-10T12:05:27.510Z,12.63
2023-01-10T12:08:13.367Z,14.52
2023-01-10T12:10:44.389Z,12.70
2023-01-10T12:13:19.397Z,16.38
2023-01-10T12:16:11.597Z,11.40
2023-01-10T12:18:46.189Z,11.55
2023-01-10T12:21:25.401Z,9.88
2023-01-10T12:24:00.475Z,15.48
2023-01-10T12:26:36.082Z,13.07
2023-01-10T12:32:30.400Z,11.30
2023-01-10T12:35:09.695Z,15.90
2023-01-10T12:38:03.057Z,10.45
2023-01-10T12:40:52.218Z,10.45
2023-01-10T12:44:13.295Z,14.60
2023-01-10T12:47:12.970Z,12.00
2023-01-10T12:50:07.896Z,12.15
2023-01-10T12:53:20.927Z,13.52
2023-01-10T12:55:59.688Z,11.05
2023-01-10T12:58:46.318Z,12.43
2023-01-10T13:01:42.788Z,17.35
2023-01-10T13:04:22.993Z,12.48
2023-01-10T13:07:21.282Z,11.93
2023-01-10T13:09:53.257Z,11.82
2023-01-10T13:12:35.751Z,11.35
2023-01-10T13:15:31.723Z,11.65
2023-01-10T13:18:31.971Z,10.50
2023-01-10T13:21:19.584Z,14.82
2023-01-10T13:24:08.935Z,13.32
2023-01-10T13:27:19.461Z,11.43
2023-01-10T13:29:51.691Z,12.13
2023-01-10T13:32:27.930Z,12.80
2023-01-10T13:35:23.435Z,11.52
2023-01-10T13:37:58.035Z,10.75
2023-01-10T13:40:33.197Z,11.60
2023-01-10T13:43:38.665Z,12.23
2023-01-10T13:46:19.660Z,11.38
2023-01-10T13:48:53.470Z,11.95
2023-01-10T13:51:28.083Z,11.32
2023-01-10T13:54:31.683Z,12.68
2023-01-10T13:57:05.847Z,10.73
2023-01-10T14:02:33.633Z,10.70
2023-01-10T14:05:08.030Z,11.18
2023-01-10T14:07:52.068Z,11.98
2023-01-10T14:10:35.271Z,11.50
2023-01-10T14:13:12.683Z,12.15
2023-01-10T14:18:40.865Z,12.27
2023-01-10T14:21:24.834Z,12.18
2023-01-10T14:26:44.423Z,11.63
2023-01-10T14:29:20.151Z,11.57
2023-01-10T14:32:45.803Z,10.82
2023-01-10T14:35:44.229Z,11.98
2023-01-10T14:41:26.713Z,12.13
2023-01-10T14:44:03.647Z,12.65
2023-01-10T14:46:51.557Z,11.77
2023-01-10T14:49:29.084Z,11.85
2023-01-10T14:52:26.496Z,11.15
2023-01-10T14:55:19.929Z,10.93
2023-01-10T14:58:21.554Z,12.27
2023-01-10T15:01:14.862Z,12.30
2023-01-10T15:07:08.321Z,11.20
2023-01-10T15:09:39.842Z,10.80
2023-01-10T15:12:14.715Z,10.45
2023-01-10T15:14:46.233Z,10.30
2023-01-10T15:17:22.895Z,12.75
2023-01-10T15:19:56.815Z,12.15
2023-01-10T15:25:47.913Z,11.68
2023-01-10T15:28:23.320Z,10.85
2023-01-10T15:30:59.654Z,10.65
2023-01-10T15:33:35.028Z,11.15
2023-01-10T15:36:15.451Z,11.82
2023-01-10T15:41:58.479Z,11.70
2023-01-10T15:47:53.090Z,10.68
2023-01-10T15:51:04.447Z,10.98
2023-01-10T15:53:57.874Z,11.63
2023-01-10T15:56:52.164Z,11.98
2023-01-10T15:59:31.201Z,11.50
2023-01-10T16:02:15.121Z,11.95
2023-01-10T16:04:48.722Z,11.55
2023-01-10T16:07:34.481Z,11.48
2023-01-10T16:10:33.156Z,11.55
2023-01-10T16:13:33.152Z,11.15
2023-01-10T16:16:09.958Z,10.70
2023-01-10T16:18:42.631Z,11.80
2023-01-10T16:21:18.553Z,11.82
2023-01-10T16:23:50.341Z,11.80
2023-01-10T16:26:33.385Z,11.02
2023-01-10T16:29:06.039Z,10.63
2023-01-10T16:31:41.015Z,11.50
2023-01-10T16:34:16.093Z,10.90
2023-01-10T16:37:12.813Z,11.18
2023-01-10T16:40:12.548Z,10.82
2023-01-10T16:43:01.710Z,11.23
2023-01-10T16:48:19.946Z,11.50
2023-01-10T16:50:51.224Z,13.33
2023-01-10T16:53:27.854Z,10.48
2023-01-10T16:56:00.509Z,12.02
2023-01-10T16:58:31.344Z,11.93
2023-01-10T17:01:02.540Z,10.15
2023-01-10T17:03:40.772Z,13.02
2023-01-10T17:06:14.019Z,11.85
2023-01-10T17:08:53.726Z,10.85
2023-01-10T17:11:31.831Z,11.52
2023-01-10T17:14:05.553Z,14.52
2023-01-10T17:16:36.428Z,12.00
2023-01-10T17:19:07.431Z,11.57
2023-01-10T17:21:41.569Z,12.82
2023-01-10T17:24:13.388Z,11.45
2023-01-10T17:26:44.335Z,11.18
2023-01-10T17:29:15.338Z,11.50
2023-01-10T17:31:46.326Z,11.57
2023-01-10T17:34:23.645Z,11.85
2023-01-10T17:39:39.056Z,12.32
2023-01-10T17:42:27.503Z,11.52
2023-01-10T17:45:08.951Z,12.00
2023-01-10T17:47:39.863Z,11.73
2023-01-10T17:50:10.952Z,11.18
2023-01-10T17:53:01.737Z,11.90
2023-01-10T17:55:56.710Z,11.40
2023-01-10T17:58:33.019Z,10.85
2023-01-10T18:01:06.152Z,10.90
2023-01-10T18:03:37.048Z,11.38
2023-01-10T18:06:19.019Z,12.05
2023-01-10T18:08:54.599Z,10.73
2023-01-10T18:11:27.673Z,11.52
2023-01-10T18:13:58.640Z,11.57
2023-01-10T18:16:29.701Z,10.93
2023-01-10T18:19:00.585Z,11.88
2023-01-10T18:21:31.549Z,11.48
2023-01-10T18:24:26.437Z,11.57
2023-01-10T18:26:57.863Z,12.27
2023-01-10T18:30:02.060Z,12.85
2023-01-10T18:32:39.628Z,11.57
2023-01-10T18:35:13.387Z,10.75
2023-01-10T18:37:44.500Z,11.05
2023-01-10T18:43:25.835Z,11.32
2023-01-10T18:46:23.588Z,11.35
2023-01-10T18:48:55.131Z,10.82
2023-01-10T18:51:26.958Z,11.82
2023-01-10T18:53:58.255Z,11.18
2023-01-10T18:56:29.305Z,11.07
2023-01-10T18:59:00.830Z,11.98
2023-01-10T19:01:57.713Z,11.52
2023-01-10T19:04:44.169Z,11.32
2023-01-10T19:07:37.768Z,11.15
2023-01-10T19:12:56.059Z,10.93
2023-01-10T19:15:27.405Z,11.82
2023-01-10T19:18:05.536Z,11.52
2023-01-10T19:20:53.926Z,12.05
2023-01-10T19:23:24.642Z,11.43
2023-01-10T19:25:59.831Z,10.55
2023-01-10T19:28:31.644Z,11.23
2023-01-10T19:36:36.090Z,12.00
2023-01-10T19:39:08.565Z,11.98
2023-01-10T19:41:46.776Z,11.38
2023-01-10T19:44:18.867Z,11.45
2023-01-10T19:46:50.690Z,10.52
2023-01-10T19:49:22.082Z,12.48
2023-01-10T19:51:55.164Z,11.95
2023-01-10T19:54:30.791Z,11.90
2023-01-10T19:57:03.914Z,10.75
2023-01-10T19:59:34.925Z,11.82
2023-01-10T20:05:13.222Z,10.88
2023-01-10T20:07:44.263Z,11.48
2023-01-10T20:10:15.251Z,11.70
2023-01-10T20:12:49.295Z,11.15
2023-01-10T20:15:20.346Z,12.07
2023-01-10T20:17:51.297Z,12.25
2023-01-10T20:23:13.109Z,11.45
2023-01-10T20:25:48.183Z,11.65
2023-01-10T20:28:43.864Z,11.45
2023-01-10T20:31:20.545Z,11.30
2023-01-10T20:33:51.969Z,11.80
2023-01-10T20:36:25.342Z,11.57
2023-01-10T20:38:56.450Z,11.43
2023-01-10T20:41:30.117Z,11.10
2023-01-10T20:44:01.600Z,11.50
2023-01-10T20:46:35.160Z,11.90
2023-01-10T20:49:06.206Z,11.55
2023-01-10T20:51:38.451Z,11.13
2023-01-10T20:54:09.964Z,12.05
2023-01-10T20:56:43.472Z,11.27
2023-01-10T20:59:14.430Z,11.02
2023-01-10T21:01:46.295Z,11.15
2023-01-10T21:05:13.183Z,11.55
2023-01-10T21:07:45.259Z,11.48
2023-01-10T21:10:16.822Z,10.95
2023-01-10T21:12:48.111Z,10.50
2023-01-10T21:15:19.146Z,11.15
2023-01-10T21:18:01.477Z,10.90
2023-01-10T21:20:32.483Z,12.20
2023-01-10T21:23:03.514Z,11.35
2023-01-10T21:28:19.496Z,11.65
2023-01-10T21:33:35.032Z,11.13
2023-01-10T21:36:12.688Z,10.88
2023-01-10T21:38:48.117Z,12.02
2023-01-10T21:41:41.253Z,11.05
2023-01-10T21:47:02.049Z,11.40
2023-01-10T21:49:33.103Z,12.93
2023-01-10T21:52:16.267Z,10.85
2023-01-10T21:54:58.891Z,11.15
2023-01-10T21:57:30.330Z,10.98
2023-01-10T22:00:02.675Z,11.23
2023-01-10T22:02:41.758Z,11.07
2023-01-10T22:05:15.618Z,11.10
2023-01-10T22:10:32.049Z,11.55
2023-01-10T22:13:03.051Z,11.82
2023-01-10T22:15:34.201Z,11.88
2023-01-10T22:18:05.455Z,10.68
2023-01-10T22:20:36.554Z,11.63
2023-01-10T22:26:17.575Z,11.75
2023-01-10T22:28:48.579Z,11.95
2023-01-10T22:31:21.002Z,12.27
2023-01-10T22:33:52.785Z,11.35
2023-01-10T22:36:24.287Z,11.68
2023-01-10T22:39:27.067Z,11.70
2023-01-10T22:41:58.706Z,10.77
2023-01-10T22:44:30.314Z,11.45
2023-01-10T22:47:04.715Z,11.48
2023-01-10T22:50:03.454Z,12.20
2023-01-10T22:52:34.636Z,11.60
2023-01-10T22:55:05.757Z,11.68
2023-01-10T22:57:46.468Z,11.52
2023-01-10T23:00:19.203Z,11.02
2023-01-10T23:02:50.064Z,12.43
2023-01-10T23:05:41.745Z,11.50
2023-01-10T23:08:12.619Z,12.18
2023-01-10T23:10:43.544Z,11.65
2023-01-10T23:13:15.844Z,12.13
2023-01-10T23:15:46.731Z,12.35
2023-01-10T23:18:17.915Z,12.70
2023-01-10T23:20:50.562Z,11.05
2023-01-10T23:23:21.449Z,12.48
2023-01-10T23:26:02.659Z,12.95
2023-01-10T23:28:41.865Z,11.40
2023-01-10T23:31:13.369Z,11.85
2023-01-10T23:33:44.119Z,11.52
2023-01-10T23:36:14.928Z,11.48
2023-01-10T23:38:47.300Z,12.27
2023-01-10T23:41:17.992Z,12.30
2023-01-10T23:43:51.266Z,12.32
2023-01-10T23:46:22.314Z,12.60
2023-01-10T23:48:53.174Z,12.70
2023-01-10T23:51:23.862Z,11.52
2023-01-10T23:53:54.515Z,12.65
2023-01-10T23:56:25.126Z,12.73
2023-01-10T23:58:55.965Z,12.70
